Time;durP1;ratioP1;P1;durP2;ratioP2;P2;SDS_P1;SDS_P2;PMS_P1;PMS_P2;Temp;Humidity;BMP_temperature;BMP_pressure;BME280_temperature;BME280_humidity;BME280_pressure;Samples;Min_cycle;Max_cycle;Signal;HPM_P1;HPM_P2
2022/06/22 00:02:34;;;;;;;1.77;0.82;;;;;;;19.18;44.05;100677.03;5180101;28;20048;-78
2022/06/22 00:05:11;;;;;;;0.60;0.60;;;;;;;19.13;44.02;100675.59;5161828;28;20056;-79
2022/06/22 00:07:49;;;;;;;0.45;0.45;;;;;;;19.11;43.91;100670.38;5170885;28;20260;-80
2022/06/22 00:10:50;;;;;;;0.52;0.32;;;;;;;19.06;43.93;100680.44;5188252;28;20108;-79
2022/06/22 00:13:25;;;;;;;6.70;1.95;;;;;;;19.05;44.29;100689.38;5182016;28;20108;-79
2022/06/22 00:16:02;;;;;;;0.20;0.20;;;;;;;19.02;44.22;100684.28;5165051;28;20034;-79
2022/06/22 00:18:42;;;;;;;0.43;0.43;;;;;;;19.00;44.17;100692.34;5163484;28;20065;-79
2022/06/22 00:21:28;;;;;;;0.40;0.40;;;;;;;18.97;44.28;100681.91;5165220;28;20065;-79
2022/06/22 00:24:15;;;;;;;0.30;0.30;;;;;;;18.93;44.52;100676.88;5182807;28;20038;-79
2022/06/22 00:26:56;;;;;;;0.30;0.30;;;;;;;18.91;44.51;100686.69;5157951;28;20042;-78
2022/06/22 00:29:34;;;;;;;0.82;0.82;;;;;;;18.86;44.45;100685.19;5165420;28;20037;-80
2022/06/22 00:32:24;;;;;;;0.20;0.20;;;;;;;18.82;44.62;100693.47;5179777;28;20033;-79
2022/06/22 00:34:55;;;;;;;0.20;0.20;;;;;;;18.78;44.57;100695.47;5154130;28;20049;-79
2022/06/22 00:37:36;;;;;;;0.30;0.30;;;;;;;18.74;44.81;100696.59;5210266;28;20101;-79
2022/06/22 00:40:16;;;;;;;0.20;0.20;;;;;;;18.71;44.63;100707.44;5147850;28;20365;-78
2022/06/22 00:42:50;;;;;;;0.30;0.30;;;;;;;18.66;44.70;100691.75;5178666;28;20445;-79
2022/06/22 01:26:04;;;;;;;5.93;0.60;;;;;;;18.10;45.57;100649.09;5174408;28;20045;-82
2022/06/22 01:28:35;;;;;;;0.47;0.47;;;;;;;18.08;45.74;100640.38;5145394;28;20069;-81
2022/06/22 01:31:13;;;;;;;0.20;0.20;;;;;;;18.02;46.06;100636.28;5174651;28;20450;-80
2022/06/22 01:33:49;;;;;;;0.40;0.40;;;;;;;17.99;46.01;100625.84;5164770;28;20025;-80
2022/06/22 01:36:32;;;;;;;0.20;0.20;;;;;;;17.97;46.13;100611.81;5198111;28;20041;-81
2022/06/22 01:39:03;;;;;;;0.20;0.20;;;;;;;17.93;45.95;100627.03;5195177;28;20033;-80
2022/06/22 02:22:15;;;;;;;0.50;0.50;;;;;;;17.41;46.66;100640.69;5194437;28;20091;-80
2022/06/22 02:24:48;;;;;;;0.57;0.57;;;;;;;17.38;46.80;100636.41;5168133;28;20107;-79
2022/06/22 02:27:23;;;;;;;0.30;0.30;;;;;;;17.37;46.69;100623.25;5177667;28;20084;-79
2022/06/22 02:29:58;;;;;;;0.20;0.20;;;;;;;17.33;47.29;100627.88;5196300;28;20682;-79
2022/06/22 02:32:35;;;;;;;0.20;0.20;;;;;;;17.30;47.08;100628.03;5146092;28;20083;-79
2022/06/22 02:35:12;;;;;;;0.22;0.22;;;;;;;17.26;47.71;100630.00;5173095;28;20061;-80
2022/06/22 02:37:53;;;;;;;0.25;0.25;;;;;;;17.23;47.15;100640.78;5140553;28;20068;-80
2022/06/22 02:40:28;;;;;;;1.27;1.08;;;;;;;17.22;47.18;100647.06;5171880;28;20041;-80
2022/06/22 02:45:47;;;;;;;0.28;0.28;;;;;;;17.17;47.34;100632.34;5196081;28;20091;-79
2022/06/22 02:48:33;;;;;;;0.45;0.45;;;;;;;17.14;47.70;100634.22;5160685;28;20045;-80
2022/06/22 02:51:26;;;;;;;0.40;0.40;;;;;;;17.13;47.20;100637.78;5143521;28;20037;-79
2022/06/22 02:54:02;;;;;;;0.40;0.40;;;;;;;17.10;47.23;100626.50;5160697;28;20773;-79
2022/06/22 02:56:40;;;;;;;0.30;0.30;;;;;;;17.05;47.27;100618.81;5159816;28;20065;-80
2022/06/22 02:59:11;;;;;;;0.55;0.55;;;;;;;17.03;47.25;100614.56;5185809;28;20046;-80
2022/06/22 03:01:41;;;;;;;1.65;1.42;;;;;;;16.97;47.33;100616.63;5185390;28;20044;-80
2022/06/22 03:04:15;;;;;;;0.40;0.40;;;;;;;16.95;47.53;100623.78;5162878;28;20037;-80
2022/06/22 03:06:49;;;;;;;0.25;0.25;;;;;;;16.92;47.69;100617.78;5176379;28;20452;-79
2022/06/22 03:09:23;;;;;;;0.35;0.35;;;;;;;16.89;47.68;100605.56;5160805;28;20045;-79
2022/06/22 03:11:56;;;;;;;0.30;0.30;;;;;;;16.89;47.61;100594.94;5170499;28;20203;-80
2022/06/22 03:14:36;;;;;;;0.93;0.93;;;;;;;16.88;47.70;100592.38;5148394;28;20492;-79
2022/06/22 03:17:12;;;;;;;0.88;0.88;;;;;;;16.84;47.60;100595.22;5183051;28;20048;-81
2022/06/22 03:19:50;;;;;;;0.20;0.20;;;;;;;16.80;48.29;100593.66;5183923;28;21317;-82
2022/06/22 03:22:31;;;;;;;0.52;0.32;;;;;;;16.79;48.04;100596.41;5172921;28;20237;-81
2022/06/22 03:25:04;;;;;;;0.45;0.45;;;;;;;16.76;48.01;100596.56;5181254;28;20045;-81
2022/06/22 03:27:39;;;;;;;0.45;0.45;;;;;;;16.75;48.04;100600.13;5198645;28;20470;-82
2022/06/22 03:30:15;;;;;;;0.63;0.63;;;;;;;16.75;48.29;100602.78;5178797;28;20048;-82
2022/06/22 03:32:58;;;;;;;0.45;0.45;;;;;;;16.72;48.16;100606.47;5153192;28;20088;-82
2022/06/22 03:35:38;;;;;;;0.70;0.70;;;;;;;16.70;48.15;100607.50;5186524;28;20034;-82
2022/06/22 03:38:15;;;;;;;0.30;0.30;;;;;;;16.71;48.69;100606.56;5170133;28;20021;-82
2022/06/22 03:40:45;;;;;;;0.95;0.95;;;;;;;16.67;49.18;100605.88;5183667;28;20379;-81
2022/06/22 03:43:22;;;;;;;0.80;0.75;;;;;;;16.65;48.38;100605.94;5148744;28;20037;-82
2022/06/22 03:46:00;;;;;;;0.90;0.90;;;;;;;16.64;48.45;100604.25;5183241;28;20603;-81
2022/06/22 03:48:37;;;;;;;1.10;0.60;;;;;;;16.63;48.82;100610.47;5183081;28;20034;-81
2022/06/22 03:51:29;;;;;;;0.38;0.38;;;;;;;16.60;48.79;100608.00;5182395;28;20046;-81
2022/06/22 03:54:28;;;;;;;0.85;0.77;;;;;;;16.59;48.74;100605.44;5184688;28;20456;-81
2022/06/22 03:57:12;;;;;;;0.73;0.73;;;;;;;16.57;48.45;100607.31;5168741;28;20081;-81
2022/06/22 03:59:45;;;;;;;0.30;0.30;;;;;;;16.53;49.04;100611.91;5205936;28;20084;-82
2022/06/22 04:02:18;;;;;;;0.57;0.57;;;;;;;16.57;48.81;100624.03;5182480;28;20030;-82
2022/06/22 04:04:52;;;;;;;0.30;0.30;;;;;;;16.57;48.91;100634.63;5191121;28;20059;-82
2022/06/22 04:07:23;;;;;;;1.60;1.42;;;;;;;16.55;49.15;100636.53;5174226;28;20068;-82
2022/06/22 04:09:58;;;;;;;0.40;0.40;;;;;;;16.53;49.10;100628.63;5148563;28;20223;-81
2022/06/22 04:12:38;;;;;;;0.50;0.50;;;;;;;16.55;49.20;100619.75;5177700;28;20037;-81
2022/06/22 04:15:31;;;;;;;0.30;0.30;;;;;;;16.52;49.08;100626.09;5151336;28;20029;-81
2022/06/22 04:18:10;;;;;;;0.60;0.60;;;;;;;16.51;48.86;100633.19;5202887;28;20510;-80
2022/06/22 04:20:50;;;;;;;0.52;0.50;;;;;;;16.52;49.29;100631.38;5187147;28;20105;-81
2022/06/22 04:23:39;;;;;;;9.90;1.85;;;;;;;16.50;49.31;100631.47;5184616;28;20041;-81
2022/06/22 04:26:25;;;;;;;0.38;0.38;;;;;;;16.50;49.39;100614.72;5182798;28;20564;-82
2022/06/22 04:29:06;;;;;;;0.75;0.75;;;;;;;16.50;49.84;100606.75;5190278;28;20033;-82
2022/06/22 04:31:41;;;;;;;1.13;0.98;;;;;;;16.51;49.64;100605.84;5199623;28;20116;-82
2022/06/22 04:34:22;;;;;;;0.30;0.30;;;;;;;16.51;49.57;100624.38;5168914;28;20180;-80
2022/06/22 04:36:56;;;;;;;0.40;0.40;;;;;;;16.50;49.65;100627.94;5165526;28;20418;-79
2022/06/22 04:39:32;;;;;;;0.70;0.57;;;;;;;16.51;49.62;100637.63;5178579;28;20042;-79
2022/06/22 04:42:08;;;;;;;1.52;0.77;;;;;;;16.53;49.66;100635.75;5187470;28;20041;-79
2022/06/22 04:44:54;;;;;;;0.30;0.30;;;;;;;16.54;50.24;100624.22;5162076;28;20026;-79
2022/06/22 04:47:34;;;;;;;2.90;1.67;;;;;;;16.51;49.83;100616.44;5179716;28;20128;-79
2022/06/22 04:50:10;;;;;;;0.45;0.45;;;;;;;16.49;49.75;100613.00;5181243;28;20111;-79
2022/06/22 04:52:47;;;;;;;0.40;0.40;;;;;;;16.50;50.48;100618.22;5184037;28;20076;-77
2022/06/22 04:55:20;;;;;;;0.88;0.88;;;;;;;16.47;50.98;100630.78;5160186;28;20166;-78
2022/06/22 04:57:54;;;;;;;0.30;0.30;;;;;;;16.49;50.22;100632.41;5199351;28;20667;-79
2022/06/22 05:00:31;;;;;;;0.32;0.32;;;;;;;16.53;50.40;100633.09;5158123;28;20037;-78
2022/06/22 05:03:13;;;;;;;0.82;0.80;;;;;;;16.50;50.88;100636.78;5181793;28;20033;-78
2022/06/22 05:05:44;;;;;;;0.70;0.50;;;;;;;16.53;50.40;100644.53;5164126;28;20107;-77
2022/06/22 05:08:38;;;;;;;0.52;0.52;;;;;;;16.52;50.80;100647.28;5192853;28;20685;-77
2022/06/22 05:11:18;;;;;;;1.85;0.95;;;;;;;16.54;50.71;100648.06;5180564;28;20077;-78
2022/06/22 05:13:52;;;;;;;0.43;0.43;;;;;;;16.55;51.46;100647.13;5176106;28;20100;-77
2022/06/22 05:16:27;;;;;;;1.27;1.15;;;;;;;16.58;51.26;100641.63;5187085;28;20065;-77
2022/06/22 05:19:00;;;;;;;4.32;0.50;;;;;;;16.59;51.06;100638.06;5192821;28;20045;-77
2022/06/22 05:21:38;;;;;;;0.50;0.50;;;;;;;16.59;51.41;100642.50;5163710;28;20458;-77
2022/06/22 05:24:26;;;;;;;0.63;0.63;;;;;;;16.63;53.05;100638.75;5175040;28;20242;-76
2022/06/22 05:27:09;;;;;;;0.52;0.50;;;;;;;16.68;50.85;100637.56;5192657;28;20057;-76
2022/06/22 05:30:05;;;;;;;0.40;0.40;;;;;;;16.71;50.75;100639.19;5193283;28;20454;-76
2022/06/22 05:32:50;;;;;;;0.40;0.40;;;;;;;16.71;51.11;100630.41;5187173;28;20030;-78
2022/06/22 05:35:29;;;;;;;0.50;0.50;;;;;;;16.76;50.97;100633.63;5175735;28;20042;-77
2022/06/22 05:38:01;;;;;;;0.60;0.60;;;;;;;16.72;51.83;100638.25;5182230;28;20057;-77
2022/06/22 05:40:32;;;;;;;0.70;0.70;;;;;;;16.75;51.48;100648.69;5174287;28;20041;-77
2022/06/22 05:43:07;;;;;;;0.38;0.38;;;;;;;16.82;51.96;100638.59;5179500;28;20040;-77
2022/06/22 05:45:44;;;;;;;1.98;0.82;;;;;;;16.81;51.27;100645.72;5163838;28;20431;-77
2022/06/22 05:48:19;;;;;;;1.35;1.27;;;;;;;16.84;51.31;100642.03;5199885;28;20040;-77
2022/06/22 05:51:01;;;;;;;0.60;0.60;;;;;;;16.87;51.70;100644.53;5180604;28;20048;-77
2022/06/22 05:53:48;;;;;;;0.60;0.60;;;;;;;16.94;51.38;100651.22;5173124;28;20030;-77
2022/06/22 05:56:23;;;;;;;0.40;0.40;;;;;;;16.96;51.47;100659.09;5182685;28;20045;-77
2022/06/22 05:59:23;;;;;;;0.40;0.40;;;;;;;16.95;51.49;100652.94;5180686;28;20075;-78
2022/06/22 06:02:12;;;;;;;0.40;0.40;;;;;;;16.96;53.18;100656.44;5158951;28;20048;-79
2022/06/22 06:04:53;;;;;;;0.45;0.45;;;;;;;17.04;53.04;100658.66;5164324;28;20026;-77
2022/06/22 06:07:36;;;;;;;1.77;1.67;;;;;;;17.04;52.95;100662.16;5157284;28;20537;-77
2022/06/22 06:10:16;;;;;;;0.45;0.45;;;;;;;17.05;52.75;100658.56;5162802;28;20037;-77
2022/06/22 06:12:59;;;;;;;0.50;0.50;;;;;;;17.12;54.47;100657.28;5192942;28;20036;-77
2022/06/22 06:15:34;;;;;;;0.80;0.80;;;;;;;17.16;52.82;100647.38;5192901;28;20127;-77
2022/06/22 06:18:09;;;;;;;1.13;1.02;;;;;;;17.21;53.17;100645.34;5185231;28;20037;-78
2022/06/22 06:20:46;;;;;;;0.90;0.38;;;;;;;17.25;53.35;100646.03;5126921;28;20755;-79
2022/06/22 06:23:40;;;;;;;0.38;0.38;;;;;;;17.28;52.34;100649.34;5197474;28;20672;-78
2022/06/22 06:29:16;;;;;;;0.55;0.55;;;;;;;17.28;53.77;100654.66;5180578;28;20033;-78
2022/06/22 06:32:01;;;;;;;0.30;0.30;;;;;;;17.36;55.56;100642.75;5169021;28;20252;-78
2022/06/22 06:34:57;;;;;;;1.48;0.75;;;;;;;17.35;53.93;100643.69;5165406;28;20029;-78
2022/06/22 06:37:55;;;;;;;0.32;0.32;;;;;;;17.43;53.92;100649.41;5166974;28;20124;-78
2022/06/22 06:40:54;;;;;;;0.45;0.45;;;;;;;17.42;54.09;100647.69;5132466;28;20057;-78
2022/06/22 06:43:36;;;;;;;0.35;0.35;;;;;;;17.53;54.00;100645.28;5161274;28;20037;-78
2022/06/22 06:46:13;;;;;;;3.35;0.82;;;;;;;17.55;55.76;100647.84;5163387;28;20136;-78
2022/06/22 06:49:19;;;;;;;0.50;0.50;;;;;;;17.58;54.14;100645.88;5151116;28;20037;-78
2022/06/22 06:51:54;;;;;;;2.15;0.73;;;;;;;17.62;53.95;100642.13;5164327;28;20083;-78
2022/06/22 06:54:30;;;;;;;0.43;0.43;;;;;;;17.68;54.02;100645.34;5182033;28;20566;-78
2022/06/22 06:57:06;;;;;;;0.52;0.52;;;;;;;17.70;54.06;100643.47;5198211;28;20508;-78
2022/06/22 06:59:39;;;;;;;2.72;1.70;;;;;;;17.77;55.04;100642.16;5180847;28;20594;-78
2022/06/22 07:02:15;;;;;;;0.47;0.47;;;;;;;17.79;53.90;100645.59;5181353;28;20037;-78
2022/06/22 07:04:49;;;;;;;1.15;0.95;;;;;;;17.81;54.33;100641.03;5164288;28;20456;-78
2022/06/22 07:07:47;;;;;;;0.30;0.30;;;;;;;17.84;54.19;100643.50;5177856;28;20037;-78
2022/06/22 07:10:24;;;;;;;3.15;0.75;;;;;;;17.91;55.13;100650.16;5182393;28;20125;-78
2022/06/22 07:13:00;;;;;;;0.30;0.30;;;;;;;17.96;54.33;100657.03;5183510;28;20022;-78
2022/06/22 07:15:39;;;;;;;6.32;1.90;;;;;;;18.00;55.40;100651.47;5163098;28;20096;-78
2022/06/22 07:18:22;;;;;;;1.55;1.27;;;;;;;18.02;54.87;100646.03;5174845;28;20089;-78
2022/06/22 07:21:09;;;;;;;0.30;0.30;;;;;;;18.09;54.89;100647.38;5171629;28;20049;-79
2022/06/22 07:24:05;;;;;;;1.00;0.73;;;;;;;18.11;53.87;100640.19;5179239;28;20033;-78
2022/06/22 07:26:45;;;;;;;1.80;1.38;;;;;;;18.16;54.20;100635.44;5181250;28;20113;-78
2022/06/22 07:29:32;;;;;;;5.00;1.00;;;;;;;18.21;54.46;100625.41;5154109;28;20045;-79
2022/06/22 07:32:15;;;;;;;0.60;0.60;;;;;;;18.30;54.36;100639.09;5144088;28;20038;-78
2022/06/22 07:35:09;;;;;;;0.43;0.43;;;;;;;18.39;54.24;100639.38;5199164;28;20042;-79
2022/06/22 07:37:45;;;;;;;0.40;0.40;;;;;;;18.40;54.47;100642.88;5144309;28;20034;-78
2022/06/22 07:40:23;;;;;;;0.65;0.65;;;;;;;18.48;53.85;100647.72;5176778;28;20049;-78
2022/06/22 07:42:56;;;;;;;3.75;1.17;;;;;;;18.48;54.00;100648.56;5173859;28;20025;-78
2022/06/22 07:45:29;;;;;;;0.77;0.77;;;;;;;18.52;53.64;100647.44;5165520;28;20375;-78
2022/06/22 07:48:06;;;;;;;0.70;0.52;;;;;;;18.63;53.90;100645.94;5183223;28;20192;-78
2022/06/22 07:50:51;;;;;;;0.85;0.85;;;;;;;18.69;53.67;100650.84;5178874;28;20072;-78
2022/06/22 07:53:30;;;;;;;0.45;0.45;;;;;;;18.72;53.44;100651.50;5151423;28;20057;-78
2022/06/22 07:56:15;;;;;;;0.45;0.45;;;;;;;18.72;53.63;100648.84;5190451;28;20034;-78
2022/06/22 07:58:50;;;;;;;1.08;1.00;;;;;;;18.76;53.99;100646.84;5193892;28;20029;-78
2022/06/22 08:01:36;;;;;;;0.32;0.32;;;;;;;18.85;53.52;100650.72;5134386;28;20054;-79
2022/06/22 08:04:17;;;;;;;0.75;0.75;;;;;;;18.90;53.23;100651.31;5148197;28;20034;-78
2022/06/22 08:07:10;;;;;;;0.38;0.38;;;;;;;18.94;53.10;100649.34;5168393;28;20069;-78
2022/06/22 08:09:55;;;;;;;0.50;0.50;;;;;;;18.96;54.06;100650.09;5143149;28;20651;-77
2022/06/22 08:12:44;;;;;;;0.40;0.40;;;;;;;18.94;53.53;100649.34;5124719;28;20380;-77
2022/06/22 08:15:16;;;;;;;1.58;1.17;;;;;;;18.97;53.19;100641.16;5145880;28;20045;-77
2022/06/22 08:17:50;;;;;;;0.70;0.63;;;;;;;19.04;53.18;100639.81;5174122;28;20034;-77
2022/06/22 08:20:26;;;;;;;0.57;0.57;;;;;;;19.13;53.11;100633.88;5162076;28;20058;-77
2022/06/22 08:23:04;;;;;;;0.35;0.35;;;;;;;19.13;53.31;100631.22;5144082;28;20518;-76
2022/06/22 08:25:36;;;;;;;0.85;0.85;;;;;;;19.25;52.88;100628.75;5164521;28;20053;-78
2022/06/22 08:28:07;;;;;;;1.85;1.38;;;;;;;19.33;52.87;100629.09;5149671;28;20102;-77
2022/06/22 08:30:39;;;;;;;15.20;0.85;;;;;;;19.33;52.50;100629.09;5168259;28;20068;-79
2022/06/22 08:33:14;;;;;;;0.20;0.20;;;;;;;19.42;52.25;100633.81;5164158;28;20737;-76
2022/06/22 08:36:15;;;;;;;0.73;0.70;;;;;;;19.43;52.44;100624.88;5196672;28;20057;-76
2022/06/22 08:38:57;;;;;;;0.55;0.55;;;;;;;19.54;52.12;100637.47;5164864;28;20041;-75
2022/06/22 08:41:32;;;;;;;3.15;0.80;;;;;;;19.69;51.60;100634.72;5170572;28;20109;-76
2022/06/22 08:44:44;;;;;;;0.20;0.20;;;;;;;19.62;51.85;100642.28;5166633;28;20042;-78
2022/06/22 08:47:59;;;;;;;0.50;0.50;;;;;;;19.62;51.76;100634.31;5133250;28;20096;-78
2022/06/22 08:50:45;;;;;;;1.83;1.67;;;;;;;19.68;51.72;100633.91;5104747;28;20087;-78
2022/06/22 08:53:26;;;;;;;0.80;0.68;;;;;;;19.92;51.20;100641.22;5163784;28;20049;-79
2022/06/22 08:56:09;;;;;;;0.55;0.55;;;;;;;19.87;51.68;100648.66;5144886;28;20072;-79
2022/06/22 08:59:31;;;;;;;0.47;0.47;;;;;;;19.98;51.28;100654.09;5151706;28;20522;-79
2022/06/22 09:02:01;;;;;;;0.35;0.35;;;;;;;19.97;51.28;100633.75;5129789;28;20168;-79
2022/06/22 09:04:47;;;;;;;0.35;0.35;;;;;;;20.01;50.98;100640.59;5184768;28;20104;-79
2022/06/22 09:07:35;;;;;;;0.75;0.75;;;;;;;20.05;51.37;100638.56;5173617;28;20083;-79
2022/06/22 09:10:32;;;;;;;0.20;0.20;;;;;;;20.08;51.07;100635.72;5167890;28;20301;-79
2022/06/22 09:13:30;;;;;;;0.52;0.52;;;;;;;20.22;51.45;100632.06;5183996;28;20029;-79
2022/06/22 09:16:41;;;;;;;1.05;1.02;;;;;;;20.24;51.07;100625.69;5152001;28;20037;-79
2022/06/22 09:19:36;;;;;;;0.50;0.50;;;;;;;20.31;50.86;100636.75;5180015;28;20549;-78
2022/06/22 09:22:16;;;;;;;0.50;0.50;;;;;;;20.39;50.34;100628.25;5189740;28;20034;-78
2022/06/22 09:25:09;;;;;;;0.20;0.20;;;;;;;20.42;50.13;100639.53;5179847;28;20045;-78
2022/06/22 09:28:08;;;;;;;0.40;0.40;;;;;;;20.48;50.60;100632.06;5183649;28;20053;-78
2022/06/22 09:31:00;;;;;;;0.30;0.30;;;;;;;20.52;49.89;100633.56;5179542;28;20069;-79
2022/06/22 09:34:00;;;;;;;0.40;0.28;;;;;;;20.63;49.52;100633.63;5150906;28;20033;-79
2022/06/22 09:37:04;;;;;;;0.43;0.43;;;;;;;20.65;49.81;100637.06;5162447;28;20474;-79
2022/06/22 09:40:04;;;;;;;;;;;;;;;20.72;50.09;100625.00;5169744;28;20248;-78
2022/06/22 09:46:18;;;;;;;1.27;0.50;;;;;;;20.83;49.69;100615.41;5182896;28;20049;-78
2022/06/22 09:49:08;;;;;;;0.38;0.38;;;;;;;20.96;49.07;100616.22;5145652;28;20040;-79
2022/06/22 09:51:57;;;;;;;0.30;0.30;;;;;;;20.94;49.60;100606.63;5154843;28;20068;-79
2022/06/22 09:58:03;;;;;;;0.43;0.43;;;;;;;21.31;48.66;100612.78;5134381;28;20085;-79
2022/06/22 10:00:56;;;;;;;0.40;0.40;;;;;;;21.23;48.41;100607.16;5170882;28;20048;-78
2022/06/22 10:03:52;;;;;;;0.43;0.40;;;;;;;21.33;48.47;100601.97;5191191;28;20038;-79
2022/06/22 10:07:05;;;;;;;0.70;0.70;;;;;;;21.34;48.60;100603.69;5168895;28;20037;-78
2022/06/22 10:09:55;;;;;;;0.35;0.35;;;;;;;21.37;48.73;100598.97;5157933;28;20101;-78
2022/06/22 10:12:35;;;;;;;0.55;0.55;;;;;;;21.60;47.67;100596.44;5169142;28;20022;-78
2022/06/22 10:15:27;;;;;;;4.05;0.82;;;;;;;21.68;47.96;100588.69;5193968;28;20046;-79
2022/06/22 10:18:14;;;;;;;1.60;0.73;;;;;;;21.78;47.17;100580.81;5198936;28;20038;-79
2022/06/22 10:21:15;;;;;;;0.38;0.38;;;;;;;21.78;47.46;100591.50;5131884;28;20315;-78
2022/06/22 10:24:07;;;;;;;0.50;0.50;;;;;;;21.76;47.34;100581.91;5155649;28;20033;-79
2022/06/22 10:27:19;;;;;;;0.60;0.60;;;;;;;21.80;47.55;100584.25;5191110;28;20494;-78
2022/06/22 10:30:40;;;;;;;0.40;0.40;;;;;;;21.91;46.32;100580.72;5177706;28;20044;-78
2022/06/22 10:33:27;;;;;;;3.83;1.05;;;;;;;21.99;46.72;100593.47;5164491;28;20060;-79
2022/06/22 10:36:17;;;;;;;0.20;0.20;;;;;;;22.06;46.86;100580.50;5175402;28;20068;-78
2022/06/22 10:38:47;;;;;;;5.10;0.82;;;;;;;22.08;47.10;100576.75;5163586;28;20029;-79
2022/06/22 10:48:02;;;;;;;0.40;0.40;;;;;;;22.36;45.93;100560.34;5161605;28;20041;-79
2022/06/22 10:50:52;;;;;;;0.43;0.43;;;;;;;22.41;45.21;100571.56;5169452;28;20060;-79
2022/06/22 10:54:05;;;;;;;0.30;0.30;;;;;;;22.49;45.59;100574.47;5168209;28;20029;-79
2022/06/22 10:56:36;;;;;;;;;;;;;;;22.50;44.37;100570.84;5166825;23;20050;-79
2022/06/22 10:59:19;;;;;;;0.20;0.20;;;;;;;22.57;45.02;100569.38;5159965;28;19917;-79
2022/06/22 11:01:59;;;;;;;0.20;0.20;;;;;;;22.68;44.88;100573.00;5161539;28;20042;-79
2022/06/22 11:04:58;;;;;;;0.68;0.60;;;;;;;22.76;44.40;100575.91;5146232;28;20037;-79
2022/06/22 11:07:57;;;;;;;0.38;0.38;;;;;;;22.88;44.57;100569.56;5141784;28;20038;-79
2022/06/22 11:10:37;;;;;;;0.40;0.40;;;;;;;22.94;44.48;100578.91;5143110;28;20132;-79
2022/06/22 11:13:26;;;;;;;0.30;0.30;;;;;;;23.01;44.38;100582.78;5179246;28;20022;-79
2022/06/22 11:16:25;;;;;;;0.52;0.52;;;;;;;23.14;44.11;100585.28;5152172;28;20437;-79
2022/06/22 11:19:14;;;;;;;3.33;1.48;;;;;;;23.17;43.08;100585.06;5182921;28;20159;-80
2022/06/22 11:22:08;;;;;;;0.32;0.32;;;;;;;23.13;43.90;100586.25;5181413;28;20045;-79
2022/06/22 11:24:44;;;;;;;1.15;1.05;;;;;;;23.26;43.05;100589.66;5139623;28;20049;-79
2022/06/22 11:30:56;;;;;;;8.63;1.13;;;;;;;23.36;42.63;100581.72;5195223;28;20049;-80
2022/06/22 11:34:08;;;;;;;0.32;0.32;;;;;;;23.45;43.07;100588.13;5197196;28;20046;-79
2022/06/22 11:36:43;;;;;;;0.50;0.50;;;;;;;23.54;42.84;100583.84;5204279;28;20059;-77
2022/06/22 11:39:53;;;;;;;0.20;0.20;;;;;;;23.60;42.85;100585.13;5173638;28;20048;-79
2022/06/22 11:42:38;;;;;;;0.43;0.43;;;;;;;23.64;42.06;100589.25;5178270;28;20041;-79
2022/06/22 11:48:24;;;;;;;0.30;0.30;;;;;;;23.89;39.71;100591.53;5175994;28;20029;-81
2022/06/22 11:51:14;;;;;;;0.65;0.65;;;;;;;23.86;41.26;100589.13;5189264;28;20034;-81
2022/06/22 11:54:18;;;;;;;0.40;0.40;;;;;;;24.01;41.05;100578.94;5185590;28;20109;-80
2022/06/22 11:56:55;;;;;;;0.25;0.25;;;;;;;24.05;40.51;100595.63;5191644;28;20544;-79
2022/06/22 11:59:45;;;;;;;0.20;0.20;;;;;;;24.13;40.42;100585.06;5194027;28;20045;-79
2022/06/22 12:02:30;;;;;;;0.32;0.32;;;;;;;24.20;40.11;100583.56;5188242;28;20121;-79
2022/06/22 12:05:30;;;;;;;0.50;0.50;;;;;;;24.27;38.46;100585.69;5165926;28;20764;-81
2022/06/22 12:08:06;;;;;;;0.50;0.50;;;;;;;24.36;40.48;100582.22;5183325;28;20037;-83
2022/06/22 12:10:58;;;;;;;0.22;0.22;;;;;;;24.48;39.64;100581.13;5158731;28;20034;-80
2022/06/22 12:13:35;;;;;;;0.30;0.30;;;;;;;24.52;39.87;100581.72;5194705;28;20818;-81
2022/06/22 12:16:29;;;;;;;0.32;0.32;;;;;;;24.64;38.52;100577.09;5179819;28;20033;-82
2022/06/22 12:19:05;;;;;;;0.85;0.85;;;;;;;24.64;38.89;100569.88;5179634;28;20540;-81
2022/06/22 12:21:54;;;;;;;0.10;0.10;;;;;;;24.75;39.64;100568.94;5181237;28;20038;-81
2022/06/22 12:25:03;;;;;;;0.20;0.20;;;;;;;24.87;39.02;100574.19;5203278;28;20036;-79
2022/06/22 12:27:43;;;;;;;0.40;0.40;;;;;;;25.00;39.13;100574.78;5192568;28;20040;-82
2022/06/22 12:30:28;;;;;;;0.70;0.70;;;;;;;25.05;37.91;100569.84;5172493;28;20038;-79
2022/06/22 12:33:19;;;;;;;0.30;0.30;;;;;;;25.23;38.44;100570.00;5183186;28;20064;-80
2022/06/22 12:36:19;;;;;;;0.38;0.38;;;;;;;25.35;36.87;100556.44;5198793;28;20509;-81
2022/06/22 12:39:05;;;;;;;1.27;0.52;;;;;;;25.43;37.32;100551.25;5170855;28;20090;-79
2022/06/22 12:42:00;;;;;;;1.08;0.82;;;;;;;25.56;36.58;100542.88;5217514;28;20126;-79
2022/06/22 12:44:56;;;;;;;0.75;0.73;;;;;;;25.67;36.45;100548.06;5197200;28;20034;-79
2022/06/22 12:47:37;;;;;;;0.38;0.38;;;;;;;25.80;36.40;100544.25;5197930;28;20056;-79
2022/06/22 12:50:47;;;;;;;0.65;0.65;;;;;;;25.89;36.51;100546.06;5180393;28;20033;-79
2022/06/22 12:53:27;;;;;;;0.30;0.30;;;;;;;26.04;36.05;100546.41;5179969;28;20033;-79
2022/06/22 12:56:23;;;;;;;4.43;1.40;;;;;;;26.07;36.40;100546.13;5167108;28;20037;-79
2022/06/22 12:59:02;;;;;;;0.60;0.60;;;;;;;26.14;36.07;100539.22;5203861;28;20119;-78
2022/06/22 13:01:33;;;;;;;0.85;0.60;;;;;;;26.20;35.98;100527.03;5179016;28;20605;-80
2022/06/22 13:04:14;;;;;;;0.22;0.22;;;;;;;26.27;35.47;100528.13;5201316;28;20049;-79
2022/06/22 13:06:49;;;;;;;0.50;0.50;;;;;;;26.38;35.24;100519.84;5206530;28;20097;-78
2022/06/22 13:09:22;;;;;;;0.40;0.40;;;;;;;26.45;35.35;100517.41;5200994;28;20033;-79
2022/06/22 13:11:57;;;;;;;0.20;0.20;;;;;;;26.55;33.58;100518.19;5207581;28;20129;-79
2022/06/22 13:14:47;;;;;;;0.63;0.63;;;;;;;26.58;34.53;100514.34;5195180;28;20486;-79
2022/06/22 13:17:27;;;;;;;0.40;0.40;;;;;;;26.67;34.35;100516.13;5191938;28;20033;-77
2022/06/22 13:20:27;;;;;;;0.55;0.55;;;;;;;26.86;34.04;100514.34;5201670;28;20050;-78
2022/06/22 13:23:19;;;;;;;0.20;0.20;;;;;;;26.89;34.16;100497.91;5158383;28;20470;-79
2022/06/22 13:25:54;;;;;;;0.30;0.30;;;;;;;27.00;34.41;100504.88;5179334;28;20034;-79
2022/06/22 13:28:28;;;;;;;0.50;0.50;;;;;;;27.12;32.94;100497.41;5190726;28;20107;-79
2022/06/22 13:31:22;;;;;;;0.22;0.22;;;;;;;27.15;33.68;100492.56;5167111;28;20057;-80
2022/06/22 13:33:52;;;;;;;0.30;0.30;;;;;;;27.33;34.42;100487.13;5188786;28;20049;-81
2022/06/22 13:36:26;;;;;;;0.20;0.20;;;;;;;27.42;33.98;100493.47;5179134;28;20185;-80
2022/06/22 13:39:33;;;;;;;7.30;1.05;;;;;;;27.46;32.75;100484.06;5190277;28;20116;-82
2022/06/22 13:42:33;;;;;;;0.20;0.20;;;;;;;27.56;32.89;100483.94;5197234;28;20053;-80
2022/06/22 13:45:19;;;;;;;0.30;0.30;;;;;;;27.61;32.35;100478.94;5182265;28;20048;-79
2022/06/22 13:48:11;;;;;;;0.30;0.30;;;;;;;27.71;32.21;100483.38;5203847;28;20047;-80
2022/06/22 13:51:21;;;;;;;0.30;0.30;;;;;;;27.76;31.38;100476.50;5175063;28;20502;-79
2022/06/22 13:54:29;;;;;;;0.40;0.40;;;;;;;27.80;30.89;100477.88;5154711;28;20037;-83
2022/06/22 13:57:24;;;;;;;0.40;0.40;;;;;;;27.85;31.12;100469.31;5182564;28;20513;-85
2022/06/22 14:00:06;;;;;;;0.38;0.38;;;;;;;27.96;29.75;100479.81;5194379;28;20052;-83
2022/06/22 14:02:50;;;;;;;0.20;0.20;;;;;;;28.00;31.11;100468.69;5177688;28;20026;-82
2022/06/22 14:05:31;;;;;;;0.98;0.82;;;;;;;28.10;31.50;100456.78;5203028;28;20073;-84
2022/06/22 14:08:17;;;;;;;0.40;0.40;;;;;;;28.14;31.58;100459.16;5176035;28;20036;-83
2022/06/22 14:11:23;;;;;;;0.40;0.40;;;;;;;28.16;31.26;100463.38;5174978;28;20038;-86
2022/06/22 14:14:18;;;;;;;0.40;0.40;;;;;;;28.34;29.42;100466.00;5150975;28;20102;-85
2022/06/22 14:16:55;;;;;;;0.20;0.20;;;;;;;28.37;30.88;100462.13;5172120;28;20444;-83
2022/06/22 14:19:57;;;;;;;0.20;0.20;;;;;;;28.42;31.49;100474.13;5189098;28;20036;-85
2022/06/22 14:22:37;;;;;;;0.20;0.20;;;;;;;28.59;31.03;100458.78;5180645;28;20059;-84
2022/06/22 14:25:40;;;;;;;0.20;0.20;;;;;;;28.66;31.37;100455.41;5198314;28;20316;-83
2022/06/22 14:28:30;;;;;;;0.20;0.20;;;;;;;28.64;30.35;100449.34;5190544;28;20044;-82
2022/06/22 14:31:38;;;;;;;0.20;0.20;;;;;;;28.79;31.01;100453.13;5161076;28;20036;-83
2022/06/22 14:34:27;;;;;;;0.20;0.20;;;;;;;28.86;31.34;100454.13;5145899;28;20057;-82